sensor_id;sensor_type;location;lat;lon;timestamp;pressure;altitude;pressure_sealevel;temperature;humidity
39699;BME280;25372;50.582;12.250;2022-11-21T00:05:18;98720.69;;;-2.42;100.00
39699;BME280;25372;50.582;12.250;2022-11-21T00:15:41;98701.31;;;-2.38;100.00
39699;BME280;25372;50.582;12.250;2022-11-21T00:26:04;98663.72;;;-2.43;100.00
39699;BME280;25372;50.582;12.250;2022-11-21T00:36:26;98641.69;;;-2.28;100.00
39699;BME280;25372;50.582;12.250;2022-11-21T00:46:47;98615.56;;;-2.36;100.00
39699;BME280;25372;50.582;12.250;2022-11-21T00:57:10;98598.81;;;-2.22;100.00
39699;BME280;25372;50.582;12.250;2022-11-21T01:07:30;98580.50;;;-2.21;100.00
39699;BME280;25372;50.582;12.250;2022-11-21T01:17:53;98552.63;;;-2.19;100.00
39699;BME280;25372;50.582;12.250;2022-11-21T01:28:14;98536.78;;;-2.16;100.00
39699;BME280;25372;50.582;12.250;2022-11-21T01:38:36;98526.72;;;-1.99;100.00
39699;BME280;25372;50.582;12.250;2022-11-21T01:49:00;98510.31;;;-1.90;100.00
39699;BME280;25372;50.582;12.250;2022-11-21T01:59:26;98514.25;;;-1.66;100.00
39699;BME280;25372;50.582;12.250;2022-11-21T02:09:52;98486.09;;;-1.71;100.00
39699;BME280;25372;50.582;12.250;2022-11-21T02:20:17;98484.28;;;-1.41;100.00
39699;BME280;25372;50.582;12.250;2022-11-21T02:30:41;98477.97;;;-1.38;100.00
39699;BME280;25372;50.582;12.250;2022-11-21T02:41:06;98462.47;;;-1.20;100.00
39699;BME280;25372;50.582;12.250;2022-11-21T02:51:30;98460.09;;;-1.14;100.00
39699;BME280;25372;50.582;12.250;2022-11-21T03:01:51;98454.75;;;-1.12;100.00
39699;BME280;25372;50.582;12.250;2022-11-21T03:12:13;98445.56;;;-1.07;100.00
39699;BME280;25372;50.582;12.250;2022-11-21T03:22:34;98444.50;;;-1.14;100.00
39699;BME280;25372;50.582;12.250;2022-11-21T03:32:57;98425.41;;;-0.95;100.00
39699;BME280;25372;50.582;12.250;2022-11-21T03:43:21;98416.03;;;-0.88;100.00
39699;BME280;25372;50.582;12.250;2022-11-21T03:53:43;98411.00;;;-0.89;100.00
39699;BME280;25372;50.582;12.250;2022-11-21T04:04:04;98375.06;;;-1.03;100.00
39699;BME280;25372;50.582;12.250;2022-11-21T04:14:27;98402.09;;;-0.86;100.00
39699;BME280;25372;50.582;12.250;2022-11-21T04:24:48;98397.44;;;-0.83;100.00
39699;BME280;25372;50.582;12.250;2022-11-21T04:35:11;98380.19;;;-0.84;100.00
39699;BME280;25372;50.582;12.250;2022-11-21T04:45:31;98365.81;;;-0.88;100.00
39699;BME280;25372;50.582;12.250;2022-11-21T04:55:54;98367.03;;;-0.82;100.00
39699;BME280;25372;50.582;12.250;2022-11-21T05:06:14;98366.88;;;-0.81;100.00
39699;BME280;25372;50.582;12.250;2022-11-21T05:16:37;98358.13;;;-0.80;100.00
39699;BME280;25372;50.582;12.250;2022-11-21T05:26:58;98378.31;;;-0.74;100.00
39699;BME280;25372;50.582;12.250;2022-11-21T05:37:20;98385.47;;;-0.76;100.00
39699;BME280;25372;50.582;12.250;2022-11-21T05:47:41;98401.53;;;-0.62;100.00
39699;BME280;25372;50.582;12.250;2022-11-21T05:58:03;98407.09;;;-0.75;100.00
39699;BME280;25372;50.582;12.250;2022-11-21T06:08:24;98411.50;;;-0.76;100.00
39699;BME280;25372;50.582;12.250;2022-11-21T06:18:48;98433.78;;;-0.73;100.00
39699;BME280;25372;50.582;12.250;2022-11-21T06:29:11;98442.88;;;-0.59;100.00
39699;BME280;25372;50.582;12.250;2022-11-21T06:39:33;98477.38;;;-0.57;100.00
39699;BME280;25372;50.582;12.250;2022-11-21T06:49:53;98498.63;;;0.20;100.00
39699;BME280;25372;50.582;12.250;2022-11-21T07:00:17;98515.22;;;0.37;100.00
39699;BME280;25372;50.582;12.250;2022-11-21T07:10:39;98524.44;;;0.31;100.00
39699;BME280;25372;50.582;12.250;2022-11-21T07:21:03;98556.81;;;0.29;100.00
39699;BME280;25372;50.582;12.250;2022-11-21T07:31:24;98587.00;;;0.13;100.00
39699;BME280;25372;50.582;12.250;2022-11-21T07:41:46;98606.16;;;-0.06;100.00
39699;BME280;25372;50.582;12.250;2022-11-21T07:52:07;98615.81;;;-0.16;100.00
39699;BME280;25372;50.582;12.250;2022-11-21T08:02:29;98642.56;;;-0.24;100.00
39699;BME280;25372;50.582;12.250;2022-11-21T08:12:50;98666.66;;;-0.59;100.00
39699;BME280;25372;50.582;12.250;2022-11-21T08:23:12;98679.31;;;-0.74;100.00
39699;BME280;25372;50.582;12.250;2022-11-21T08:33:34;98688.63;;;-1.11;100.00
39699;BME280;25372;50.582;12.250;2022-11-21T08:43:59;98721.50;;;-1.00;100.00
39699;BME280;25372;50.582;12.250;2022-11-21T08:54:22;98718.88;;;-1.10;100.00
39699;BME280;25372;50.582;12.250;2022-11-21T09:04:44;98718.06;;;-1.20;100.00
39699;BME280;25372;50.582;12.250;2022-11-21T09:15:08;98757.88;;;-1.10;100.00
39699;BME280;25372;50.582;12.250;2022-11-21T09:25:47;98776.78;;;-1.08;100.00
39699;BME280;25372;50.582;12.250;2022-11-21T09:36:08;98779.78;;;-1.02;100.00
39699;BME280;25372;50.582;12.250;2022-11-21T09:46:35;98795.69;;;-0.86;100.00
39699;BME280;25372;50.582;12.250;2022-11-21T09:57:00;98788.84;;;-0.77;100.00
39699;BME280;25372;50.582;12.250;2022-11-21T10:07:25;98804.88;;;-0.72;100.00
39699;BME280;25372;50.582;12.250;2022-11-21T10:17:56;98816.50;;;-0.76;100.00
39699;BME280;25372;50.582;12.250;2022-11-21T10:28:25;98806.91;;;-0.66;100.00
39699;BME280;25372;50.582;12.250;2022-11-21T10:38:57;98826.38;;;-0.60;100.00
39699;BME280;25372;50.582;12.250;2022-11-21T10:49:19;98827.31;;;-0.91;100.00
39699;BME280;25372;50.582;12.250;2022-11-21T10:59:40;98836.91;;;-0.72;100.00
39699;BME280;25372;50.582;12.250;2022-11-21T11:10:20;98835.69;;;-0.58;100.00
39699;BME280;25372;50.582;12.250;2022-11-21T11:20:43;98825.81;;;-0.74;100.00
39699;BME280;25372;50.582;12.250;2022-11-21T11:31:06;98828.41;;;-0.34;100.00
39699;BME280;25372;50.582;12.250;2022-11-21T11:41:46;98828.00;;;-0.30;100.00
39699;BME280;25372;50.582;12.250;2022-11-21T11:52:32;98793.63;;;-0.43;100.00
39699;BME280;25372;50.582;12.250;2022-11-21T12:02:59;98815.78;;;-0.29;100.00
39699;BME280;25372;50.582;12.250;2022-11-21T12:13:26;98804.94;;;-0.15;100.00
39699;BME280;25372;50.582;12.250;2022-11-21T12:23:49;98813.63;;;-0.34;100.00
39699;BME280;25372;50.582;12.250;2022-11-21T12:34:23;98806.81;;;0.03;100.00
39699;BME280;25372;50.582;12.250;2022-11-21T12:45:00;98812.03;;;0.03;100.00
39699;BME280;25372;50.582;12.250;2022-11-21T12:55:35;98806.88;;;-0.17;100.00
39699;BME280;25372;50.582;12.250;2022-11-21T13:05:57;98792.13;;;0.11;100.00
39699;BME280;25372;50.582;12.250;2022-11-21T13:16:22;98794.66;;;-0.07;100.00
39699;BME280;25372;50.582;12.250;2022-11-21T13:26:56;98798.56;;;-0.30;100.00
39699;BME280;25372;50.582;12.250;2022-11-21T13:48:31;98755.97;;;-0.02;100.00
39699;BME280;25372;50.582;12.250;2022-11-21T13:59:19;98751.63;;;-0.11;100.00
39699;BME280;25372;50.582;12.250;2022-11-21T14:09:47;98748.09;;;-0.29;100.00
39699;BME280;25372;50.582;12.250;2022-11-21T14:20:15;98754.09;;;-0.19;100.00
39699;BME280;25372;50.582;12.250;2022-11-21T14:30:39;98733.91;;;-0.45;100.00
39699;BME280;25372;50.582;12.250;2022-11-21T14:41:23;98746.84;;;-0.15;100.00
39699;BME280;25372;50.582;12.250;2022-11-21T14:51:48;98754.31;;;-0.40;100.00
39699;BME280;25372;50.582;12.250;2022-11-21T15:02:11;98756.91;;;-0.40;100.00
39699;BME280;25372;50.582;12.250;2022-11-21T15:12:35;98753.66;;;-0.62;100.00
39699;BME280;25372;50.582;12.250;2022-11-21T15:22:59;98735.00;;;-0.57;100.00
39699;BME280;25372;50.582;12.250;2022-11-21T15:33:22;98747.50;;;-0.61;100.00
39699;BME280;25372;50.582;12.250;2022-11-21T15:43:45;98743.66;;;-0.66;100.00
39699;BME280;25372;50.582;12.250;2022-11-21T15:54:11;98722.28;;;-0.60;100.00
39699;BME280;25372;50.582;12.250;2022-11-21T16:04:32;98711.47;;;-0.65;100.00
39699;BME280;25372;50.582;12.250;2022-11-21T16:14:54;98699.94;;;-0.63;100.00
39699;BME280;25372;50.582;12.250;2022-11-21T16:25:15;98685.03;;;-0.61;100.00
39699;BME280;25372;50.582;12.250;2022-11-21T16:35:38;98670.50;;;-0.63;100.00
39699;BME280;25372;50.582;12.250;2022-11-21T16:46:05;98656.56;;;-0.62;100.00
39699;BME280;25372;50.582;12.250;2022-11-21T16:56:28;98641.47;;;-0.59;100.00
39699;BME280;25372;50.582;12.250;2022-11-21T17:06:49;98645.88;;;-0.69;100.00
39699;BME280;25372;50.582;12.250;2022-11-21T17:17:13;98622.44;;;-0.69;100.00
39699;BME280;25372;50.582;12.250;2022-11-21T17:27:33;98621.22;;;-0.65;100.00
39699;BME280;25372;50.582;12.250;2022-11-21T17:37:56;98615.56;;;-0.60;100.00
39699;BME280;25372;50.582;12.250;2022-11-21T17:48:16;98635.00;;;-1.12;100.00
39699;BME280;25372;50.582;12.250;2022-11-21T17:58:38;98619.16;;;-1.48;100.00
39699;BME280;25372;50.582;12.250;2022-11-21T18:09:00;98621.16;;;-1.81;100.00
39699;BME280;25372;50.582;12.250;2022-11-21T18:19:22;98608.13;;;-2.20;100.00
39699;BME280;25372;50.582;12.250;2022-11-21T18:29:44;98604.06;;;-2.43;100.00
39699;BME280;25372;50.582;12.250;2022-11-21T18:40:07;98582.97;;;-2.60;100.00
39699;BME280;25372;50.582;12.250;2022-11-21T18:50:29;98556.00;;;-2.78;100.00
39699;BME280;25372;50.582;12.250;2022-11-21T19:00:58;98521.38;;;-2.99;100.00
39699;BME280;25372;50.582;12.250;2022-11-21T19:11:20;98511.19;;;-2.90;100.00
39699;BME280;25372;50.582;12.250;2022-11-21T19:21:44;98488.94;;;-3.03;100.00
39699;BME280;25372;50.582;12.250;2022-11-21T19:32:05;98476.78;;;-3.02;100.00
39699;BME280;25372;50.582;12.250;2022-11-21T19:42:28;98475.78;;;-3.11;100.00
39699;BME280;25372;50.582;12.250;2022-11-21T19:52:49;98474.97;;;-3.11;100.00
39699;BME280;25372;50.582;12.250;2022-11-21T20:03:13;98474.34;;;-3.25;100.00
39699;BME280;25372;50.582;12.250;2022-11-21T20:13:33;98467.88;;;-3.40;100.00
39699;BME280;25372;50.582;12.250;2022-11-21T20:23:56;98471.66;;;-3.44;100.00
39699;BME280;25372;50.582;12.250;2022-11-21T20:34:17;98484.16;;;-3.50;100.00
39699;BME280;25372;50.582;12.250;2022-11-21T20:44:39;98471.59;;;-3.54;100.00
39699;BME280;25372;50.582;12.250;2022-11-21T20:55:00;98472.00;;;-3.80;100.00
39699;BME280;25372;50.582;12.250;2022-11-21T21:05:22;98457.34;;;-3.70;100.00
39699;BME280;25372;50.582;12.250;2022-11-21T21:15:44;98466.56;;;-3.56;100.00
39699;BME280;25372;50.582;12.250;2022-11-21T21:26:08;98471.63;;;-3.75;100.00
39699;BME280;25372;50.582;12.250;2022-11-21T21:36:29;98456.16;;;-3.87;100.00
39699;BME280;25372;50.582;12.250;2022-11-21T21:46:52;98467.22;;;-3.63;100.00
39699;BME280;25372;50.582;12.250;2022-11-21T21:57:12;98491.84;;;-3.69;100.00
39699;BME280;25372;50.582;12.250;2022-11-21T22:07:35;98476.47;;;-3.82;100.00
39699;BME280;25372;50.582;12.250;2022-11-21T22:17:55;98471.38;;;-3.72;100.00
39699;BME280;25372;50.582;12.250;2022-11-21T22:28:18;98440.84;;;-3.69;100.00
39699;BME280;25372;50.582;12.250;2022-11-21T22:38:38;98389.63;;;-3.96;100.00
39699;BME280;25372;50.582;12.250;2022-11-21T22:49:00;98411.56;;;-3.69;100.00
39699;BME280;25372;50.582;12.250;2022-11-21T22:59:22;98414.75;;;-2.84;100.00
39699;BME280;25372;50.582;12.250;2022-11-21T23:09:44;98403.06;;;-2.59;100.00
39699;BME280;25372;50.582;12.250;2022-11-21T23:20:05;98390.66;;;-2.36;100.00
39699;BME280;25372;50.582;12.250;2022-11-21T23:30:27;98391.72;;;-2.09;100.00
39699;BME280;25372;50.582;12.250;2022-11-21T23:40:48;98378.97;;;-1.83;100.00
39699;BME280;25372;50.582;12.250;2022-11-21T23:51:11;98347.50;;;-2.37;100.00
